Time,TemperatureF,DewpointF,PressureIn,WindDirection,WindDirectionDegrees,WindSpeedMPH,WindSpeedGustMPH,Humidity,HourlyPrecipIn,Conditions,Clouds,dailyrainin,SolarRadiationWatts/m^2,SoftwareType,DateUTC
2013-01-24 00:00:00,49.1,49.1,29.75,North,355,0.0,3.4,100,0.00,,,-99.99,1.0,HOBO +U30 +Weather +,2013-01-24 08:00:00,
2013-01-24 00:05:00,49.1,49.1,29.75,North,355,0.0,2.9,100,0.00,,,-99.99,1.0,HOBO +U30 +Weather +,2013-01-24 08:05:00,
2013-01-24 00:10:00,49.2,49.2,29.75,North,354,0.0,2.9,100,0.00,,,-99.99,1.0,HOBO +U30 +Weather +,2013-01-24 08:10:00,
2013-01-24 00:15:00,49.2,49.2,29.74,North,352,0.0,2.2,100,0.00,,,-99.99,1.0,HOBO +U30 +Weather +,2013-01-24 08:15:00,
2013-01-24 00:20:00,49.1,49.1,29.75,North,355,0.0,2.2,100,0.00,,,-99.99,1.0,HOBO +U30 +Weather +,2013-01-24 08:20:00,
2013-01-24 00:25:00,49.1,49.1,29.75,North,355,0.0,1.8,100,0.00,,,-99.99,1.0,HOBO +U30 +Weather +,2013-01-24 08:25:00,
2013-01-24 00:30:00,49.2,49.2,29.74,NNE,14,0.0,1.8,100,0.00,,,-99.99,1.0,HOBO +U30 +Weather +,2013-01-24 08:30:00,
2013-01-24 00:35:00,49.2,49.2,29.74,NNE,13,0.0,5.1,99,0.00,,,-99.99,1.0,HOBO +U30 +Weather +,2013-01-24 08:35:00,
2013-01-24 00:40:00,49.1,49.1,29.74,North,1,0.0,1.8,99,0.00,,,-99.99,1.0,HOBO +U30 +Weather +,2013-01-24 08:40:00,
2013-01-24 00:45:00,49.2,49.2,29.74,North,355,0.0,1.8,99,0.00,,,-99.99,1.0,HOBO +U30 +Weather +,2013-01-24 08:45:00,
2013-01-24 00:50:00,49.1,49.1,29.74,North,355,0.0,1.8,99,0.00,,,-99.99,1.0,HOBO +U30 +Weather +,2013-01-24 08:50:00,
2013-01-24 00:55:00,49.0,49.0,29.75,North,352,0.0,3.4,99,0.00,,,-99.99,1.0,HOBO +U30 +Weather +,2013-01-24 08:55:00,
2013-01-24 01:00:00,48.9,48.9,29.74,NNW,347,0.0,2.2,99,0.00,,,-99.99,1.0,HOBO +U30 +Weather +,2013-01-24 09:00:00,
2013-01-24 01:05:00,48.9,48.9,29.74,North,1,0.0,1.1,99,0.00,,,-99.99,1.0,HOBO +U30 +Weather +,2013-01-24 09:05:00,
2013-01-24 01:10:00,48.9,48.9,29.74,North,355,0.0,2.9,99,0.00,,,-99.99,1.0,HOBO +U30 +Weather +,2013-01-24 09:10:00,
2013-01-24 01:15:00,48.8,48.8,29.74,NNW,338,0.0,3.4,99,0.00,,,-99.99,1.0,HOBO +U30 +Weather +,2013-01-24 09:15:00,
2013-01-24 01:20:00,48.8,48.7,29.74,North,355,0.0,4.0,99,0.00,,,-99.99,1.0,HOBO +U30 +Weather +,2013-01-24 09:20:00,
2013-01-24 01:25:00,48.7,48.7,29.74,North,351,0.0,4.5,99,0.00,,,-99.99,1.0,HOBO +U30 +Weather +,2013-01-24 09:25:00,
2013-01-24 01:30:00,48.8,48.7,29.74,NNW,341,0.0,0.7,99,0.00,,,-99.99,1.0,HOBO +U30 +Weather +,2013-01-24 09:30:00,
2013-01-24 01:35:00,48.8,48.8,29.75,NNW,344,0.0,0.0,99,0.00,,,-99.99,1.0,HOBO +U30 +Weather +,2013-01-24 09:35:00,
2013-01-24 01:40:00,48.8,48.8,29.75,NNW,345,0.0,0.0,99,0.00,,,-99.99,1.0,HOBO +U30 +Weather +,2013-01-24 09:40:00,
2013-01-24 01:45:00,48.8,48.8,29.75,NNW,345,0.0,0.0,99,0.00,,,-99.99,1.0,HOBO +U30 +Weather +,2013-01-24 09:45:00,
2013-01-24 01:50:00,48.9,48.8,29.74,NNW,345,0.0,0.0,99,0.00,,,-99.99,1.0,HOBO +U30 +Weather +,2013-01-24 09:50:00,
2013-01-24 01:55:00,49.2,49.1,29.74,North,6,0.0,1.8,99,0.00,,,-99.99,1.0,HOBO +U30 +Weather +,2013-01-24 09:55:00,
2013-01-24 02:00:00,49.6,49.5,29.74,NE,44,1.1,4.0,99,0.00,,,-99.99,1.0,HOBO +U30 +Weather +,2013-01-24 10:00:00,
2013-01-24 02:05:00,49.9,49.5,29.74,NNE,27,0.0,3.4,98,0.00,,,-99.99,1.0,HOBO +U30 +Weather +,2013-01-24 10:05:00,
2013-01-24 02:10:00,50.0,49.5,29.74,NNE,24,0.0,2.2,98,0.00,,,-99.99,1.0,HOBO +U30 +Weather +,2013-01-24 10:10:00,
2013-01-24 02:15:00,50.0,49.4,29.74,NNE,21,0.0,0.7,97,0.00,,,-99.99,1.0,HOBO +U30 +Weather +,2013-01-24 10:15:00,
2013-01-24 02:20:00,49.9,49.3,29.75,NNE,21,0.0,0.0,97,0.00,,,-99.99,1.0,HOBO +U30 +Weather +,2013-01-24 10:20:00,
2013-01-24 02:25:00,49.9,49.2,29.74,NNE,21,0.0,1.1,97,0.00,,,-99.99,1.0,HOBO +U30 +Weather +,2013-01-24 10:25:00,
2013-01-24 02:30:00,49.6,48.9,29.74,North,0,0.0,1.1,97,0.00,,,-99.99,1.0,HOBO +U30 +Weather +,2013-01-24 10:30:00,
2013-01-24 02:35:00,49.4,48.8,29.75,North,355,0.0,1.1,97,0.00,,,-99.99,1.0,HOBO +U30 +Weather +,2013-01-24 10:35:00,
2013-01-24 02:40:00,49.3,48.8,29.75,North,355,0.0,0.0,97,0.00,,,-99.99,1.0,HOBO +U30 +Weather +,2013-01-24 10:40:00,
2013-01-24 02:45:00,49.4,48.9,29.75,North,355,0.0,0.0,98,0.00,,,-99.99,1.0,HOBO +U30 +Weather +,2013-01-24 10:45:00,
2013-01-24 02:50:00,49.3,48.9,29.75,North,355,0.0,0.0,98,0.00,,,-99.99,1.0,HOBO +U30 +Weather +,2013-01-24 10:50:00,
2013-01-24 02:55:00,49.4,49.0,29.75,North,355,0.0,0.0,98,0.00,,,-99.99,1.0,HOBO +U30 +Weather +,2013-01-24 10:55:00,
2013-01-24 03:00:00,49.5,49.0,29.76,North,355,0.0,0.7,98,0.00,,,-99.99,1.0,HOBO +U30 +Weather +,2013-01-24 11:00:00,
2013-01-24 03:05:00,49.5,49.0,29.75,North,352,0.0,1.8,98,0.00,,,-99.99,1.0,HOBO +U30 +Weather +,2013-01-24 11:05:00,
2013-01-24 03:10:00,49.5,49.0,29.75,North,355,0.0,3.4,98,0.00,,,-99.99,1.0,HOBO +U30 +Weather +,2013-01-24 11:10:00,
2013-01-24 03:15:00,49.5,49.0,29.75,NNW,334,0.0,1.8,98,0.00,,,-99.99,1.0,HOBO +U30 +Weather +,2013-01-24 11:15:00,
2013-01-24 03:20:00,49.5,49.1,29.75,North,355,0.0,2.2,98,0.00,,,-99.99,1.0,HOBO +U30 +Weather +,2013-01-24 11:20:00,
2013-01-24 03:25:00,49.6,49.1,29.75,North,355,0.0,2.2,98,0.00,,,-99.99,1.0,HOBO +U30 +Weather +,2013-01-24 11:25:00,
2013-01-24 03:30:00,49.6,49.1,29.75,North,355,0.0,2.2,98,0.00,,,-99.99,1.0,HOBO +U30 +Weather +,2013-01-24 11:30:00,
2013-01-24 03:35:00,49.6,49.1,29.75,North,351,0.0,4.0,98,0.00,,,-99.99,1.0,HOBO +U30 +Weather +,2013-01-24 11:35:00,
2013-01-24 03:40:00,49.6,49.1,29.75,NNW,337,0.0,1.1,98,0.00,,,-99.99,1.0,HOBO +U30 +Weather +,2013-01-24 11:40:00,
2013-01-24 03:45:00,49.6,49.2,29.75,NNW,341,0.0,1.1,98,0.00,,,-99.99,1.0,HOBO +U30 +Weather +,2013-01-24 11:45:00,
2013-01-24 03:50:00,49.7,49.2,29.75,North,355,0.0,2.2,98,0.00,,,-99.99,1.0,HOBO +U30 +Weather +,2013-01-24 11:50:00,
2013-01-24 03:55:00,49.7,49.2,29.75,North,355,0.0,1.8,98,0.00,,,-99.99,1.0,HOBO +U30 +Weather +,2013-01-24 11:55:00,
2013-01-24 04:00:00,49.6,49.1,29.75,North,355,0.0,1.8,98,0.00,,,-99.99,1.0,HOBO +U30 +Weather +,2013-01-24 12:00:00,
2013-01-24 04:05:00,49.6,49.1,29.75,North,355,0.0,0.7,98,0.00,,,-99.99,1.0,HOBO +U30 +Weather +,2013-01-24 12:05:00,
2013-01-24 04:10:00,49.7,49.2,29.75,North,355,0.0,1.1,98,0.00,,,-99.99,1.0,HOBO +U30 +Weather +,2013-01-24 12:10:00,
2013-01-24 04:15:00,49.9,49.4,29.75,North,355,0.0,0.0,98,0.00,,,-99.99,1.0,HOBO +U30 +Weather +,2013-01-24 12:15:00,
2013-01-24 04:20:00,50.1,49.6,29.75,North,355,0.0,0.0,97,0.00,,,-99.99,1.0,HOBO +U30 +Weather +,2013-01-24 12:20:00,
2013-01-24 04:25:00,50.1,49.4,29.75,North,355,0.0,0.0,97,0.00,,,-99.99,1.0,HOBO +U30 +Weather +,2013-01-24 12:25:00,
2013-01-24 04:30:00,50.1,49.5,29.75,North,355,0.0,0.0,97,0.00,,,-99.99,1.0,HOBO +U30 +Weather +,2013-01-24 12:30:00,
2013-01-24 04:35:00,50.3,49.6,29.75,North,355,0.0,0.0,97,0.00,,,-99.99,1.0,HOBO +U30 +Weather +,2013-01-24 12:35:00,
2013-01-24 04:40:00,50.2,49.4,29.75,North,355,0.0,0.0,97,0.00,,,-99.99,1.0,HOBO +U30 +Weather +,2013-01-24 12:40:00,
2013-01-24 04:45:00,50.2,49.4,29.75,North,355,0.0,0.0,97,0.00,,,-99.99,1.0,HOBO +U30 +Weather +,2013-01-24 12:45:00,
2013-01-24 04:50:00,50.4,49.6,29.75,North,355,0.0,0.0,96,0.00,,,-99.99,1.0,HOBO +U30 +Weather +,2013-01-24 12:50:00,
2013-01-24 04:55:00,50.6,49.7,29.75,North,355,0.0,0.0,96,0.00,,,-99.99,1.0,HOBO +U30 +Weather +,2013-01-24 12:55:00,
2013-01-24 05:00:00,50.7,49.7,29.75,North,355,0.0,0.0,96,0.00,,,-99.99,1.0,HOBO +U30 +Weather +,2013-01-24 13:00:00,
2013-01-24 05:05:00,50.5,49.5,29.75,North,355,0.0,0.0,96,0.00,,,-99.99,1.0,HOBO +U30 +Weather +,2013-01-24 13:05:00,
2013-01-24 05:10:00,50.3,49.3,29.75,North,355,0.0,0.0,96,0.00,,,-99.99,1.0,HOBO +U30 +Weather +,2013-01-24 13:10:00,
2013-01-24 05:15:00,50.2,49.3,29.75,North,355,0.0,0.0,96,0.00,,,-99.99,1.0,HOBO +U30 +Weather +,2013-01-24 13:15:00,
2013-01-24 05:20:00,50.2,49.4,29.75,North,355,0.0,0.7,96,0.00,,,-99.99,1.0,HOBO +U30 +Weather +,2013-01-24 13:20:00,
2013-01-24 05:25:00,50.2,49.4,29.75,North,355,0.0,0.7,96,0.00,,,-99.99,1.0,HOBO +U30 +Weather +,2013-01-24 13:25:00,
2013-01-24 05:30:00,50.3,49.5,29.75,North,355,0.0,1.8,97,0.00,,,-99.99,1.0,HOBO +U30 +Weather +,2013-01-24 13:30:00,
2013-01-24 05:35:00,50.2,49.5,29.75,North,3,0.0,1.8,97,0.00,,,-99.99,1.0,HOBO +U30 +Weather +,2013-01-24 13:35:00,
2013-01-24 05:40:00,50.2,49.5,29.75,North,0,0.0,1.8,97,0.00,,,-99.99,1.0,HOBO +U30 +Weather +,2013-01-24 13:40:00,
2013-01-24 05:45:00,50.1,49.5,29.75,North,350,0.0,0.7,97,0.00,,,-99.99,1.0,HOBO +U30 +Weather +,2013-01-24 13:45:00,
2013-01-24 05:50:00,50.2,49.5,29.75,North,350,0.0,0.0,97,0.00,,,-99.99,1.0,HOBO +U30 +Weather +,2013-01-24 13:50:00,
2013-01-24 05:55:00,50.3,49.7,29.75,North,350,0.0,0.0,97,0.00,,,-99.99,1.0,HOBO +U30 +Weather +,2013-01-24 13:55:00,
2013-01-24 06:00:00,50.3,49.6,29.75,North,350,0.0,0.0,97,0.00,,,-99.99,1.0,HOBO +U30 +Weather +,2013-01-24 14:00:00,
2013-01-24 06:05:00,50.3,49.7,29.76,North,350,0.0,1.1,97,0.00,,,-99.99,1.0,HOBO +U30 +Weather +,2013-01-24 14:05:00,
2013-01-24 06:10:00,50.4,49.8,29.75,North,351,0.0,1.1,97,0.00,,,-99.99,1.0,HOBO +U30 +Weather +,2013-01-24 14:10:00,
2013-01-24 06:15:00,50.7,50.1,29.76,NNE,22,0.0,1.8,97,0.00,,,-99.99,1.0,HOBO +U30 +Weather +,2013-01-24 14:15:00,
2013-01-24 06:20:00,51.0,50.2,29.76,NE,42,0.7,3.4,97,0.00,,,-99.99,1.0,HOBO +U30 +Weather +,2013-01-24 14:20:00,
2013-01-24 06:25:00,51.2,50.1,29.76,NE,34,0.7,3.4,96,0.00,,,-99.99,1.0,HOBO +U30 +Weather +,2013-01-24 14:25:00,
2013-01-24 06:30:00,51.1,50.0,29.76,NE,34,0.0,2.2,95,0.00,,,-99.99,1.0,HOBO +U30 +Weather +,2013-01-24 14:30:00,
2013-01-24 06:35:00,51.0,49.8,29.76,NNE,20,0.7,4.5,95,0.00,,,-99.99,1.0,HOBO +U30 +Weather +,2013-01-24 14:35:00,
2013-01-24 06:40:00,50.9,49.8,29.77,North,10,0.0,2.2,95,0.00,,,-99.99,1.0,HOBO +U30 +Weather +,2013-01-24 14:40:00,
2013-01-24 06:45:00,51.0,49.9,29.77,NNE,22,0.0,2.9,95,0.00,,,-99.99,1.0,HOBO +U30 +Weather +,2013-01-24 14:45:00,
2013-01-24 06:50:00,50.9,49.8,29.77,NNE,21,0.0,3.4,96,0.00,,,-99.99,1.0,HOBO +U30 +Weather +,2013-01-24 14:50:00,
2013-01-24 06:55:00,50.8,49.8,29.77,NNE,29,0.0,0.7,96,0.00,,,-99.99,1.0,HOBO +U30 +Weather +,2013-01-24 14:55:00,
2013-01-24 07:00:00,50.8,49.7,29.77,North,352,0.0,2.2,96,0.00,,,-99.99,1.0,HOBO +U30 +Weather +,2013-01-24 15:00:00,
2013-01-24 07:05:00,50.8,49.8,29.77,North,355,0.0,1.1,96,0.00,,,-99.99,1.0,HOBO +U30 +Weather +,2013-01-24 15:05:00,
2013-01-24 07:10:00,50.7,49.7,29.77,North,355,0.0,0.0,96,0.00,,,-99.99,1.0,HOBO +U30 +Weather +,2013-01-24 15:10:00,
2013-01-24 07:15:00,50.8,49.8,29.78,North,355,0.0,0.0,96,0.00,,,-99.99,1.0,HOBO +U30 +Weather +,2013-01-24 15:15:00,
2013-01-24 07:20:00,50.8,49.8,29.78,North,1,0.0,1.1,96,0.00,,,-99.99,1.0,HOBO +U30 +Weather +,2013-01-24 15:20:00,
2013-01-24 07:25:00,50.9,50.0,29.77,North,6,0.0,1.8,96,0.00,,,-99.99,1.0,HOBO +U30 +Weather +,2013-01-24 15:25:00,
2013-01-24 07:30:00,51.0,50.0,29.77,North,11,0.0,0.7,96,0.00,,,-99.99,2.0,HOBO +U30 +Weather +,2013-01-24 15:30:00,
2013-01-24 07:35:00,51.0,50.1,29.78,North,11,0.0,1.1,96,0.00,,,-99.99,3.0,HOBO +U30 +Weather +,2013-01-24 15:35:00,
2013-01-24 07:40:00,51.2,50.2,29.78,North,7,0.0,1.1,96,0.00,,,-99.99,4.0,HOBO +U30 +Weather +,2013-01-24 15:40:00,
2013-01-24 07:45:00,51.2,50.2,29.78,North,8,0.0,1.8,96,0.00,,,-99.99,6.0,HOBO +U30 +Weather +,2013-01-24 15:45:00,
2013-01-24 07:50:00,51.3,50.2,29.78,North,11,0.0,0.7,96,0.00,,,-99.99,7.0,HOBO +U30 +Weather +,2013-01-24 15:50:00,
2013-01-24 07:55:00,51.3,50.2,29.78,North,11,0.0,0.0,95,0.00,,,-99.99,7.0,HOBO +U30 +Weather +,2013-01-24 15:55:00,
2013-01-24 08:00:00,51.2,50.1,29.78,North,11,0.0,0.7,95,0.00,,,-99.99,11.0,HOBO +U30 +Weather +,2013-01-24 16:00:00,
2013-01-24 08:05:00,51.2,50.2,29.77,North,11,0.0,0.0,96,0.00,,,-99.99,14.0,HOBO +U30 +Weather +,2013-01-24 16:05:00,
2013-01-24 08:10:00,51.3,50.3,29.77,North,4,0.0,1.1,96,0.00,,,-99.99,19.0,HOBO +U30 +Weather +,2013-01-24 16:10:00,
2013-01-24 08:15:00,51.3,50.3,29.78,North,4,0.0,1.1,96,0.00,,,-99.99,21.0,HOBO +U30 +Weather +,2013-01-24 16:15:00,
2013-01-24 08:20:00,51.3,50.2,29.78,NNE,21,0.0,2.2,96,0.00,,,-99.99,24.0,HOBO +U30 +Weather +,2013-01-24 16:20:00,
2013-01-24 08:25:00,51.4,50.3,29.78,NNE,18,0.0,1.8,96,0.00,,,-99.99,27.0,HOBO +U30 +Weather +,2013-01-24 16:25:00,
2013-01-24 08:30:00,51.2,50.2,29.78,NNE,24,0.7,2.9,96,0.00,,,-99.99,28.0,HOBO +U30 +Weather +,2013-01-24 16:30:00,
2013-01-24 08:35:00,51.2,50.2,29.78,NNE,25,0.0,1.8,96,0.00,,,-99.99,31.0,HOBO +U30 +Weather +,2013-01-24 16:35:00,
2013-01-24 08:40:00,51.2,50.1,29.79,NE,44,0.7,2.9,95,0.00,,,-99.99,33.0,HOBO +U30 +Weather +,2013-01-24 16:40:00,
2013-01-24 08:45:00,51.3,50.1,29.79,NNE,31,0.7,4.0,95,0.00,,,-99.99,33.0,HOBO +U30 +Weather +,2013-01-24 16:45:00,
2013-01-24 08:50:00,51.2,49.9,29.79,NNE,14,0.7,3.4,95,0.00,,,-99.99,36.0,HOBO +U30 +Weather +,2013-01-24 16:50:00,
2013-01-24 08:55:00,51.1,50.0,29.80,NNE,13,0.0,2.9,95,0.00,,,-99.99,42.0,HOBO +U30 +Weather +,2013-01-24 16:55:00,
2013-01-24 09:00:00,51.0,49.9,29.80,NNE,20,0.0,4.0,95,0.00,,,-99.99,53.0,HOBO +U30 +Weather +,2013-01-24 17:00:00,
2013-01-24 09:05:00,51.0,49.9,29.80,North,3,0.0,4.5,96,0.00,,,-99.99,69.0,HOBO +U30 +Weather +,2013-01-24 17:05:00,
2013-01-24 09:10:00,51.2,50.1,29.80,NNE,14,0.7,4.0,96,0.00,,,-99.99,86.0,HOBO +U30 +Weather +,2013-01-24 17:10:00,
2013-01-24 09:15:00,51.4,50.3,29.80,NNE,14,0.7,4.5,96,0.00,,,-99.99,97.0,HOBO +U30 +Weather +,2013-01-24 17:15:00,
2013-01-24 09:20:00,51.7,50.5,29.81,North,10,0.7,3.4,95,0.00,,,-99.99,99.0,HOBO +U30 +Weather +,2013-01-24 17:20:00,
2013-01-24 09:25:00,52.1,50.8,29.81,North,3,0.0,3.4,95,0.00,,,-99.99,103.0,HOBO +U30 +Weather +,2013-01-24 17:25:00,
2013-01-24 09:30:00,51.8,50.4,29.82,North,352,0.7,3.4,94,0.00,,,-99.99,112.0,HOBO +U30 +Weather +,2013-01-24 17:30:00,
2013-01-24 09:35:00,51.5,50.1,29.82,NNW,338,0.0,2.9,94,0.00,,,-99.99,112.0,HOBO +U30 +Weather +,2013-01-24 17:35:00,
2013-01-24 09:40:00,51.4,50.0,29.82,North,351,0.7,3.4,94,0.00,,,-99.99,109.0,HOBO +U30 +Weather +,2013-01-24 17:40:00,
2013-01-24 09:45:00,51.5,50.2,29.83,NNW,343,0.0,2.2,95,0.00,,,-99.99,92.0,HOBO +U30 +Weather +,2013-01-24 17:45:00,
2013-01-24 09:50:00,52.0,50.7,29.83,NNW,348,0.0,2.2,95,0.00,,,-99.99,76.0,HOBO +U30 +Weather +,2013-01-24 17:50:00,
2013-01-24 09:55:00,52.1,50.7,29.83,North,351,0.0,1.1,94,0.00,,,-99.99,74.0,HOBO +U30 +Weather +,2013-01-24 17:55:00,
2013-01-24 10:00:00,51.8,50.3,29.83,North,10,0.7,2.9,94,0.00,,,-99.99,73.0,HOBO +U30 +Weather +,2013-01-24 18:00:00,
2013-01-24 10:05:00,51.8,50.4,29.83,North,10,0.0,3.4,94,0.00,,,-99.99,68.0,HOBO +U30 +Weather +,2013-01-24 18:05:00,
2013-01-24 10:10:00,51.5,50.1,29.83,NNE,13,1.1,3.4,94,0.00,,,-99.99,66.0,HOBO +U30 +Weather +,2013-01-24 18:10:00,
2013-01-24 10:15:00,51.5,50.1,29.83,NE,35,0.7,2.2,94,0.00,,,-99.99,76.0,HOBO +U30 +Weather +,2013-01-24 18:15:00,
2013-01-24 10:20:00,51.9,50.6,29.83,NNE,28,0.0,1.8,94,0.00,,,-99.99,96.0,HOBO +U30 +Weather +,2013-01-24 18:20:00,
2013-01-24 10:25:00,52.5,51.0,29.83,NNE,21,0.0,1.1,94,0.00,,,-99.99,111.0,HOBO +U30 +Weather +,2013-01-24 18:25:00,
2013-01-24 10:30:00,52.8,51.1,29.83,North,4,0.0,1.8,93,0.00,,,-99.99,131.0,HOBO +U30 +Weather +,2013-01-24 18:30:00,
2013-01-24 10:35:00,52.8,51.0,29.83,North,7,0.0,1.8,93,0.00,,,-99.99,124.0,HOBO +U30 +Weather +,2013-01-24 18:35:00,
2013-01-24 10:40:00,53.2,51.4,29.83,NNW,345,0.0,1.1,93,0.00,,,-99.99,118.0,HOBO +U30 +Weather +,2013-01-24 18:40:00,
2013-01-24 10:45:00,53.2,51.2,29.83,NNE,13,0.0,3.4,93,0.00,,,-99.99,128.0,HOBO +U30 +Weather +,2013-01-24 18:45:00,
2013-01-24 10:50:00,53.4,51.4,29.83,NNE,13,0.0,1.8,92,0.00,,,-99.99,143.0,HOBO +U30 +Weather +,2013-01-24 18:50:00,
2013-01-24 10:55:00,53.7,51.6,29.83,North,3,0.0,1.1,92,0.00,,,-99.99,137.0,HOBO +U30 +Weather +,2013-01-24 18:55:00,
2013-01-24 11:00:00,53.8,51.5,29.83,North,10,0.0,2.9,91,0.00,,,-99.99,139.0,HOBO +U30 +Weather +,2013-01-24 19:00:00,
2013-01-24 11:05:00,54.2,51.8,29.83,NNE,17,0.0,1.8,91,0.00,,,-99.99,176.0,HOBO +U30 +Weather +,2013-01-24 19:05:00,
2013-01-24 11:10:00,54.7,52.1,29.83,NNE,17,0.0,2.2,90,0.00,,,-99.99,214.0,HOBO +U30 +Weather +,2013-01-24 19:10:00,
2013-01-24 11:15:00,55.4,52.5,29.83,North,352,0.0,1.8,89,0.00,,,-99.99,242.0,HOBO +U30 +Weather +,2013-01-24 19:15:00,
2013-01-24 11:20:00,56.1,52.9,29.83,NNW,347,0.0,2.2,88,0.00,,,-99.99,263.0,HOBO +U30 +Weather +,2013-01-24 19:20:00,
2013-01-24 11:25:00,56.3,52.5,29.82,North,351,0.0,2.9,87,0.00,,,-99.99,269.0,HOBO +U30 +Weather +,2013-01-24 19:25:00,
2013-01-24 11:30:00,56.1,52.0,29.83,North,3,0.0,3.4,85,0.00,,,-99.99,266.0,HOBO +U30 +Weather +,2013-01-24 19:30:00,
2013-01-24 11:35:00,56.2,51.9,29.83,North,3,0.0,3.4,85,0.00,,,-99.99,261.0,HOBO +U30 +Weather +,2013-01-24 19:35:00,
2013-01-24 11:40:00,57.1,52.8,29.83,North,355,0.0,2.2,85,0.00,,,-99.99,334.0,HOBO +U30 +Weather +,2013-01-24 19:40:00,
2013-01-24 11:45:00,57.6,52.9,29.82,North,4,0.7,4.5,84,0.00,,,-99.99,342.0,HOBO +U30 +Weather +,2013-01-24 19:45:00,
2013-01-24 11:50:00,57.5,52.2,29.82,North,4,0.7,4.0,82,0.00,,,-99.99,278.0,HOBO +U30 +Weather +,2013-01-24 19:50:00,
2013-01-24 11:55:00,57.4,52.1,29.82,North,0,0.7,4.5,82,0.00,,,-99.99,262.0,HOBO +U30 +Weather +,2013-01-24 19:55:00,
2013-01-24 12:00:00,57.8,52.4,29.82,NNE,13,0.0,3.4,82,0.00,,,-99.99,279.0,HOBO +U30 +Weather +,2013-01-24 20:00:00,
2013-01-24 12:05:00,57.5,52.0,29.82,North,355,0.0,2.9,81,0.00,,,-99.99,233.0,HOBO +U30 +Weather +,2013-01-24 20:05:00,
2013-01-24 12:10:00,57.1,51.7,29.81,NNW,347,0.0,2.2,82,0.00,,,-99.99,223.0,HOBO +U30 +Weather +,2013-01-24 20:10:00,
2013-01-24 12:15:00,57.5,52.2,29.81,NNW,340,0.0,4.0,82,0.00,,,-99.99,244.0,HOBO +U30 +Weather +,2013-01-24 20:15:00,
2013-01-24 12:20:00,57.0,51.5,29.81,North,10,0.0,3.4,81,0.00,,,-99.99,226.0,HOBO +U30 +Weather +,2013-01-24 20:20:00,
2013-01-24 12:25:00,57.8,52.5,29.80,North,1,0.0,2.2,82,0.00,,,-99.99,217.0,HOBO +U30 +Weather +,2013-01-24 20:25:00,
2013-01-24 12:30:00,57.8,52.1,29.80,North,354,0.0,5.1,81,0.00,,,-99.99,199.0,HOBO +U30 +Weather +,2013-01-24 20:30:00,
2013-01-24 12:35:00,57.8,52.2,29.80,North,355,0.0,2.9,81,0.00,,,-99.99,211.0,HOBO +U30 +Weather +,2013-01-24 20:35:00,
2013-01-24 12:40:00,58.2,52.3,29.80,North,350,0.0,2.2,80,0.00,,,-99.99,229.0,HOBO +U30 +Weather +,2013-01-24 20:40:00,
2013-01-24 12:45:00,57.8,52.0,29.80,North,355,0.7,4.0,80,0.00,,,-99.99,241.0,HOBO +U30 +Weather +,2013-01-24 20:45:00,
2013-01-24 12:50:00,57.9,52.5,29.80,North,352,0.7,5.6,82,0.00,,,-99.99,233.0,HOBO +U30 +Weather +,2013-01-24 20:50:00,
2013-01-24 12:55:00,57.8,52.4,29.79,North,0,0.7,3.4,82,0.00,,,-99.99,196.0,HOBO +U30 +Weather +,2013-01-24 20:55:00,
2013-01-24 13:00:00,57.8,52.4,29.79,NNW,344,0.0,5.6,82,0.00,,,-99.99,181.0,HOBO +U30 +Weather +,2013-01-24 21:00:00,
2013-01-24 13:05:00,57.2,51.8,29.79,North,7,0.7,4.0,82,0.00,,,-99.99,177.0,HOBO +U30 +Weather +,2013-01-24 21:05:00,
2013-01-24 13:10:00,57.5,52.2,29.79,North,355,0.7,4.0,82,0.00,,,-99.99,199.0,HOBO +U30 +Weather +,2013-01-24 21:10:00,
2013-01-24 13:15:00,57.8,52.4,29.79,NNW,343,0.7,5.1,81,0.00,,,-99.99,214.0,HOBO +U30 +Weather +,2013-01-24 21:15:00,
2013-01-24 13:20:00,58.3,52.5,29.79,NNW,340,0.0,2.9,81,0.00,,,-99.99,226.0,HOBO +U30 +Weather +,2013-01-24 21:20:00,
2013-01-24 13:25:00,58.3,52.3,29.79,North,352,0.7,3.4,80,0.00,,,-99.99,237.0,HOBO +U30 +Weather +,2013-01-24 21:25:00,
2013-01-24 13:30:00,58.3,52.3,29.79,North,350,0.7,4.5,80,0.00,,,-99.99,231.0,HOBO +U30 +Weather +,2013-01-24 21:30:00,
2013-01-24 13:35:00,58.2,52.2,29.78,North,3,0.7,4.5,80,0.00,,,-99.99,244.0,HOBO +U30 +Weather +,2013-01-24 21:35:00,
2013-01-24 13:40:00,58.1,52.1,29.78,North,0,0.7,4.0,80,0.00,,,-99.99,256.0,HOBO +U30 +Weather +,2013-01-24 21:40:00,
2013-01-24 13:45:00,58.3,52.5,29.78,North,355,0.7,4.5,81,0.00,,,-99.99,262.0,HOBO +U30 +Weather +,2013-01-24 21:45:00,
2013-01-24 13:50:00,58.8,52.8,29.78,North,350,0.0,3.4,80,0.00,,,-99.99,254.0,HOBO +U30 +Weather +,2013-01-24 21:50:00,
2013-01-24 13:55:00,59.5,53.1,29.78,North,350,0.0,1.1,79,0.00,,,-99.99,239.0,HOBO +U30 +Weather +,2013-01-24 21:55:00,
2013-01-24 14:00:00,58.6,52.2,29.78,North,355,0.7,4.0,79,0.00,,,-99.99,237.0,HOBO +U30 +Weather +,2013-01-24 22:00:00,
2013-01-24 14:05:00,58.6,52.4,29.78,North,355,0.0,2.9,79,0.00,,,-99.99,227.0,HOBO +U30 +Weather +,2013-01-24 22:05:00,
2013-01-24 14:10:00,58.5,52.3,29.78,North,352,0.7,4.5,79,0.00,,,-99.99,219.0,HOBO +U30 +Weather +,2013-01-24 22:10:00,
2013-01-24 14:15:00,58.2,52.1,29.78,North,352,0.7,4.5,80,0.00,,,-99.99,191.0,HOBO +U30 +Weather +,2013-01-24 22:15:00,
2013-01-24 14:20:00,57.9,52.1,29.78,North,350,0.7,5.1,80,0.00,,,-99.99,177.0,HOBO +U30 +Weather +,2013-01-24 22:20:00,
2013-01-24 14:25:00,57.8,52.0,29.78,North,350,0.7,3.4,80,0.00,,,-99.99,177.0,HOBO +U30 +Weather +,2013-01-24 22:25:00,
2013-01-24 14:30:00,57.8,52.1,29.78,North,355,0.7,3.4,81,0.00,,,-99.99,173.0,HOBO +U30 +Weather +,2013-01-24 22:30:00,
2013-01-24 14:35:00,57.7,51.9,29.78,North,355,0.7,3.4,81,0.00,,,-99.99,169.0,HOBO +U30 +Weather +,2013-01-24 22:35:00,
2013-01-24 14:40:00,57.6,52.0,29.78,NNW,347,0.7,4.0,81,0.00,,,-99.99,162.0,HOBO +U30 +Weather +,2013-01-24 22:40:00,
2013-01-24 14:45:00,57.6,51.9,29.78,North,351,0.7,4.0,81,0.00,,,-99.99,153.0,HOBO +U30 +Weather +,2013-01-24 22:45:00,
2013-01-24 14:50:00,57.3,51.7,29.79,North,355,0.7,4.0,81,0.00,,,-99.99,147.0,HOBO +U30 +Weather +,2013-01-24 22:50:00,
2013-01-24 14:55:00,57.5,51.9,29.79,North,355,0.7,4.0,81,0.00,,,-99.99,138.0,HOBO +U30 +Weather +,2013-01-24 22:55:00,
2013-01-24 15:00:00,57.1,51.6,29.79,North,3,0.7,3.4,81,0.00,,,-99.99,127.0,HOBO +U30 +Weather +,2013-01-24 23:00:00,
2013-01-24 15:05:00,57.4,52.1,29.79,North,4,0.0,1.8,82,0.00,,,-99.99,122.0,HOBO +U30 +Weather +,2013-01-24 23:05:00,
2013-01-24 15:10:00,57.2,51.8,29.79,North,1,0.0,1.8,82,0.00,,,-99.99,122.0,HOBO +U30 +Weather +,2013-01-24 23:10:00,
2013-01-24 15:15:00,56.7,51.5,29.79,North,6,0.0,2.9,82,0.00,,,-99.99,132.0,HOBO +U30 +Weather +,2013-01-24 23:15:00,
2013-01-24 15:20:00,57.7,52.6,29.79,North,8,0.0,0.7,82,0.00,,,-99.99,153.0,HOBO +U30 +Weather +,2013-01-24 23:20:00,
2013-01-24 15:25:00,57.5,51.9,29.79,North,8,0.0,1.1,81,0.00,,,-99.99,198.0,HOBO +U30 +Weather +,2013-01-24 23:25:00,
2013-01-24 15:30:00,59.2,53.6,29.79,North,4,0.0,0.0,81,0.00,,,-99.99,247.0,HOBO +U30 +Weather +,2013-01-24 23:30:00,
2013-01-24 15:35:00,60.5,53.8,29.79,North,4,0.0,0.0,78,0.00,,,-99.99,197.0,HOBO +U30 +Weather +,2013-01-24 23:35:00,
2013-01-24 15:40:00,60.9,53.5,29.79,NNE,17,0.0,2.9,76,0.00,,,-99.99,262.0,HOBO +U30 +Weather +,2013-01-24 23:40:00,
2013-01-24 15:45:00,59.6,52.0,29.79,North,7,0.0,3.4,75,0.00,,,-99.99,182.0,HOBO +U30 +Weather +,2013-01-24 23:45:00,
2013-01-24 15:50:00,61.1,53.7,29.79,ESE,115,0.0,3.4,76,0.00,,,-99.99,231.0,HOBO +U30 +Weather +,2013-01-24 23:50:00,
2013-01-24 15:55:00,60.9,52.6,29.79,ESE,111,0.0,4.5,73,0.00,,,-99.99,167.0,HOBO +U30 +Weather +,2013-01-24 23:55:00,
2013-01-24 16:00:00,60.2,52.2,29.79,East,93,0.7,3.4,74,0.00,,,-99.99,143.0,HOBO +U30 +Weather +,2013-01-25 00:00:00,
2013-01-24 16:05:00,59.3,51.7,29.79,ENE,76,0.0,3.4,76,0.00,,,-99.99,147.0,HOBO +U30 +Weather +,2013-01-25 00:05:00,
2013-01-24 16:10:00,59.3,52.0,29.79,SE,126,0.0,3.4,76,0.00,,,-99.99,111.0,HOBO +U30 +Weather +,2013-01-25 00:10:00,
2013-01-24 16:15:00,58.7,51.8,29.80,NNW,340,0.0,2.2,77,0.00,,,-99.99,106.0,HOBO +U30 +Weather +,2013-01-25 00:15:00,
2013-01-24 16:20:00,58.3,51.7,29.80,NW,309,0.0,0.7,78,0.00,,,-99.99,88.0,HOBO +U30 +Weather +,2013-01-25 00:20:00,
2013-01-24 16:25:00,57.6,51.1,29.80,WNW,303,0.0,1.1,78,0.00,,,-99.99,61.0,HOBO +U30 +Weather +,2013-01-25 00:25:00,
2013-01-24 16:30:00,57.1,51.1,29.80,WNW,288,0.0,0.7,80,0.00,,,-99.99,42.0,HOBO +U30 +Weather +,2013-01-25 00:30:00,
2013-01-24 16:35:00,56.9,51.0,29.81,WNW,288,0.0,0.0,80,0.00,,,-99.99,28.0,HOBO +U30 +Weather +,2013-01-25 00:35:00,
2013-01-24 16:40:00,56.8,51.2,29.81,WNW,291,0.0,0.0,81,0.00,,,-99.99,18.0,HOBO +U30 +Weather +,2013-01-25 00:40:00,
2013-01-24 16:45:00,56.9,51.4,29.81,WNW,291,0.0,0.0,81,0.00,,,-99.99,16.0,HOBO +U30 +Weather +,2013-01-25 00:45:00,
2013-01-24 16:50:00,56.9,51.4,29.81,WNW,286,0.0,2.9,81,0.00,,,-99.99,17.0,HOBO +U30 +Weather +,2013-01-25 00:50:00,
2013-01-24 16:55:00,56.4,51.1,29.81,North,355,0.0,1.1,82,0.00,,,-99.99,16.0,HOBO +U30 +Weather +,2013-01-25 00:55:00,
2013-01-24 17:00:00,56.2,51.2,29.81,North,352,0.0,0.0,82,0.00,,,-99.99,13.0,HOBO +U30 +Weather +,2013-01-25 01:00:00,
2013-01-24 17:05:00,56.2,51.2,29.81,North,352,0.0,0.0,83,0.00,,,-99.99,8.0,HOBO +U30 +Weather +,2013-01-25 01:05:00,
2013-01-24 17:10:00,56.0,51.2,29.81,North,352,0.0,0.0,83,0.00,,,-99.99,7.0,HOBO +U30 +Weather +,2013-01-25 01:10:00,
2013-01-24 17:15:00,56.0,51.3,29.81,North,352,0.0,0.7,84,0.00,,,-99.99,3.0,HOBO +U30 +Weather +,2013-01-25 01:15:00,
2013-01-24 17:20:00,56.1,51.5,29.81,North,354,0.0,0.7,84,0.00,,,-99.99,2.0,HOBO +U30 +Weather +,2013-01-25 01:20:00,
2013-01-24 17:25:00,55.8,51.3,29.81,North,354,0.0,1.1,84,0.00,,,-99.99,2.0,HOBO +U30 +Weather +,2013-01-25 01:25:00,
2013-01-24 17:30:00,55.7,51.3,29.81,North,354,0.0,0.0,85,0.00,,,-99.99,1.0,HOBO +U30 +Weather +,2013-01-25 01:30:00,
2013-01-24 17:35:00,55.7,51.4,29.81,North,354,0.0,0.7,85,0.00,,,-99.99,1.0,HOBO +U30 +Weather +,2013-01-25 01:35:00,
2013-01-24 17:40:00,55.7,51.5,29.81,North,354,0.0,0.0,85,0.00,,,-99.99,1.0,HOBO +U30 +Weather +,2013-01-25 01:40:00,
2013-01-24 17:45:00,55.7,51.5,29.81,North,354,0.0,0.0,85,0.00,,,-99.99,1.0,HOBO +U30 +Weather +,2013-01-25 01:45:00,
2013-01-24 17:50:00,55.6,51.6,29.81,North,354,0.0,0.7,86,0.00,,,-99.99,1.0,HOBO +U30 +Weather +,2013-01-25 01:50:00,
2013-01-24 17:55:00,55.7,51.6,29.81,North,354,0.0,0.0,86,0.00,,,-99.99,1.0,HOBO +U30 +Weather +,2013-01-25 01:55:00,
2013-01-24 18:00:00,55.7,51.7,29.81,North,354,0.0,0.0,86,0.00,,,-99.99,1.0,HOBO +U30 +Weather +,2013-01-25 02:00:00,
2013-01-24 18:05:00,55.7,51.7,29.81,North,354,0.0,1.1,86,0.00,,,-99.99,1.0,HOBO +U30 +Weather +,2013-01-25 02:05:00,
2013-01-24 18:10:00,55.5,51.5,29.82,North,354,0.0,0.0,86,0.00,,,-99.99,1.0,HOBO +U30 +Weather +,2013-01-25 02:10:00,
2013-01-24 18:15:00,55.7,51.6,29.82,North,3,0.0,2.2,86,0.00,,,-99.99,1.0,HOBO +U30 +Weather +,2013-01-25 02:15:00,
2013-01-24 18:20:00,55.8,51.6,29.82,NNE,13,0.0,0.7,85,0.00,,,-99.99,1.0,HOBO +U30 +Weather +,2013-01-25 02:20:00,
2013-01-24 18:25:00,55.8,51.6,29.82,NNE,13,0.0,1.1,85,0.00,,,-99.99,1.0,HOBO +U30 +Weather +,2013-01-25 02:25:00,
2013-01-24 18:30:00,55.8,51.5,29.82,ENE,59,0.0,2.2,85,0.00,,,-99.99,1.0,HOBO +U30 +Weather +,2013-01-25 02:30:00,
2013-01-24 18:35:00,55.7,51.6,29.82,ENE,65,0.0,0.0,86,0.00,,,-99.99,1.0,HOBO +U30 +Weather +,2013-01-25 02:35:00,
2013-01-24 18:40:00,55.5,51.6,29.82,ENE,65,0.0,1.1,86,0.00,,,-99.99,1.0,HOBO +U30 +Weather +,2013-01-25 02:40:00,
2013-01-24 18:45:00,55.3,51.5,29.83,ENE,65,0.0,0.0,86,0.00,,,-99.99,1.0,HOBO +U30 +Weather +,2013-01-25 02:45:00,
2013-01-24 18:50:00,55.1,51.3,29.83,ENE,65,0.0,0.0,87,0.00,,,-99.99,1.0,HOBO +U30 +Weather +,2013-01-25 02:50:00,
2013-01-24 18:55:00,55.0,51.3,29.83,ENE,65,0.0,0.0,87,0.00,,,-99.99,1.0,HOBO +U30 +Weather +,2013-01-25 02:55:00,
2013-01-24 19:00:00,55.0,51.4,29.83,NE,46,0.0,1.1,87,0.00,,,-99.99,1.0,HOBO +U30 +Weather +,2013-01-25 03:00:00,
2013-01-24 19:05:00,55.0,51.3,29.83,NNE,24,0.0,0.7,87,0.00,,,-99.99,1.0,HOBO +U30 +Weather +,2013-01-25 03:05:00,
2013-01-24 19:10:00,55.0,51.3,29.83,NE,37,0.7,2.9,87,0.00,,,-99.99,1.0,HOBO +U30 +Weather +,2013-01-25 03:10:00,
2013-01-24 19:15:00,54.8,51.2,29.83,NE,52,0.0,1.8,87,0.00,,,-99.99,1.0,HOBO +U30 +Weather +,2013-01-25 03:15:00,
2013-01-24 19:20:00,54.6,51.1,29.83,NE,52,0.0,0.7,87,0.00,,,-99.99,1.0,HOBO +U30 +Weather +,2013-01-25 03:20:00,
2013-01-24 19:25:00,54.3,50.9,29.83,NE,52,0.0,0.0,88,0.00,,,-99.99,1.0,HOBO +U30 +Weather +,2013-01-25 03:25:00,
2013-01-24 19:30:00,54.2,50.9,29.83,NE,52,0.0,0.0,88,0.00,,,-99.99,1.0,HOBO +U30 +Weather +,2013-01-25 03:30:00,
2013-01-24 19:35:00,54.0,50.8,29.83,NE,48,0.0,0.0,88,0.00,,,-99.99,1.0,HOBO +U30 +Weather +,2013-01-25 03:35:00,
2013-01-24 19:40:00,53.8,50.7,29.83,NE,35,0.0,0.0,89,0.00,,,-99.99,1.0,HOBO +U30 +Weather +,2013-01-25 03:40:00,
2013-01-24 19:45:00,53.7,50.8,29.83,NNE,31,0.0,0.7,89,0.00,,,-99.99,1.0,HOBO +U30 +Weather +,2013-01-25 03:45:00,
2013-01-24 19:50:00,53.5,50.7,29.83,NNE,18,0.0,0.7,90,0.00,,,-99.99,1.0,HOBO +U30 +Weather +,2013-01-25 03:50:00,
2013-01-24 19:55:00,53.2,50.4,29.84,NNE,17,0.0,0.7,90,0.00,,,-99.99,1.0,HOBO +U30 +Weather +,2013-01-25 03:55:00,
2013-01-24 20:00:00,52.8,50.2,29.84,North,7,0.0,0.0,91,0.00,,,-99.99,1.0,HOBO +U30 +Weather +,2013-01-25 04:00:00,
2013-01-24 20:05:00,52.4,50.2,29.84,North,6,0.0,0.0,92,0.00,,,-99.99,1.0,HOBO +U30 +Weather +,2013-01-25 04:05:00,
2013-01-24 20:10:00,52.3,50.3,29.84,North,6,0.0,0.0,92,0.00,,,-99.99,1.0,HOBO +U30 +Weather +,2013-01-25 04:10:00,
2013-01-24 20:15:00,52.3,50.4,29.84,North,6,0.0,0.0,93,0.00,,,-99.99,1.0,HOBO +U30 +Weather +,2013-01-25 04:15:00,
2013-01-24 20:20:00,52.2,50.4,29.84,North,6,0.0,0.0,93,0.00,,,-99.99,1.0,HOBO +U30 +Weather +,2013-01-25 04:20:00,
2013-01-24 20:25:00,52.3,50.5,29.84,North,3,0.0,0.7,93,0.00,,,-99.99,1.0,HOBO +U30 +Weather +,2013-01-25 04:25:00,
2013-01-24 20:30:00,52.4,50.8,29.84,North,0,0.0,0.7,94,0.00,,,-99.99,1.0,HOBO +U30 +Weather +,2013-01-25 04:30:00,
2013-01-24 20:35:00,52.4,50.8,29.84,North,0,0.0,0.0,94,0.00,,,-99.99,1.0,HOBO +U30 +Weather +,2013-01-25 04:35:00,
2013-01-24 20:40:00,52.4,50.8,29.84,North,0,0.0,1.1,94,0.00,,,-99.99,1.0,HOBO +U30 +Weather +,2013-01-25 04:40:00,
2013-01-24 20:45:00,52.3,50.7,29.84,North,0,0.0,0.0,94,0.00,,,-99.99,1.0,HOBO +U30 +Weather +,2013-01-25 04:45:00,
2013-01-24 20:50:00,52.2,50.7,29.84,North,0,0.0,0.0,94,0.00,,,-99.99,1.0,HOBO +U30 +Weather +,2013-01-25 04:50:00,
2013-01-24 20:55:00,52.5,51.0,29.84,North,0,0.0,0.7,94,0.00,,,-99.99,1.0,HOBO +U30 +Weather +,2013-01-25 04:55:00,
2013-01-24 21:00:00,52.6,51.1,29.84,North,0,0.0,0.7,94,0.00,,,-99.99,1.0,HOBO +U30 +Weather +,2013-01-25 05:00:00,
2013-01-24 21:05:00,52.6,51.0,29.85,North,0,0.0,0.0,94,0.00,,,-99.99,1.0,HOBO +U30 +Weather +,2013-01-25 05:05:00,
2013-01-24 21:10:00,52.6,51.0,29.84,North,0,0.0,0.0,94,0.00,,,-99.99,1.0,HOBO +U30 +Weather +,2013-01-25 05:10:00,
2013-01-24 21:15:00,52.6,51.0,29.84,North,0,0.0,1.1,94,0.00,,,-99.99,1.0,HOBO +U30 +Weather +,2013-01-25 05:15:00,
2013-01-24 21:20:00,52.4,50.8,29.85,North,0,0.0,0.7,94,0.00,,,-99.99,1.0,HOBO +U30 +Weather +,2013-01-25 05:20:00,
2013-01-24 21:25:00,52.3,50.7,29.85,North,1,0.0,0.0,94,0.00,,,-99.99,1.0,HOBO +U30 +Weather +,2013-01-25 05:25:00,
2013-01-24 21:30:00,52.2,50.7,29.85,North,1,0.0,0.7,94,0.00,,,-99.99,1.0,HOBO +U30 +Weather +,2013-01-25 05:30:00,
2013-01-24 21:35:00,52.4,50.8,29.85,North,1,0.0,0.7,94,0.00,,,-99.99,1.0,HOBO +U30 +Weather +,2013-01-25 05:35:00,
2013-01-24 21:40:00,52.5,50.8,29.85,North,1,0.0,0.0,94,0.00,,,-99.99,1.0,HOBO +U30 +Weather +,2013-01-25 05:40:00,
2013-01-24 21:45:00,52.5,50.8,29.85,North,1,0.0,0.0,93,0.00,,,-99.99,1.0,HOBO +U30 +Weather +,2013-01-25 05:45:00,
2013-01-24 21:50:00,52.5,50.7,29.85,North,1,0.0,0.7,93,0.00,,,-99.99,1.0,HOBO +U30 +Weather +,2013-01-25 05:50:00,
2013-01-24 21:55:00,52.5,50.7,29.85,North,1,0.0,0.0,93,0.00,,,-99.99,1.0,HOBO +U30 +Weather +,2013-01-25 05:55:00,
2013-01-24 22:00:00,52.5,50.7,29.85,North,1,0.0,0.0,93,0.00,,,-99.99,1.0,HOBO +U30 +Weather +,2013-01-25 06:00:00,
2013-01-24 22:05:00,52.4,50.6,29.84,North,1,0.0,0.0,93,0.00,,,-99.99,1.0,HOBO +U30 +Weather +,2013-01-25 06:05:00,
2013-01-24 22:10:00,52.6,50.8,29.85,North,1,0.0,0.0,93,0.00,,,-99.99,1.0,HOBO +U30 +Weather +,2013-01-25 06:10:00,
2013-01-24 22:15:00,52.7,50.8,29.85,North,1,0.0,0.7,93,0.00,,,-99.99,1.0,HOBO +U30 +Weather +,2013-01-25 06:15:00,
2013-01-24 22:20:00,52.6,50.7,29.85,North,1,0.0,0.0,93,0.00,,,-99.99,1.0,HOBO +U30 +Weather +,2013-01-25 06:20:00,
2013-01-24 22:25:00,52.8,50.8,29.85,North,1,0.0,1.1,93,0.00,,,-99.99,1.0,HOBO +U30 +Weather +,2013-01-25 06:25:00,
2013-01-24 22:30:00,52.7,50.7,29.85,North,3,0.0,0.0,92,0.00,,,-99.99,1.0,HOBO +U30 +Weather +,2013-01-25 06:30:00,
2013-01-24 22:35:00,52.9,50.8,29.85,North,3,0.0,1.1,92,0.00,,,-99.99,1.0,HOBO +U30 +Weather +,2013-01-25 06:35:00,
2013-01-24 22:40:00,52.9,50.7,29.86,North,8,0.0,1.8,92,0.00,,,-99.99,1.0,HOBO +U30 +Weather +,2013-01-25 06:40:00,
2013-01-24 22:45:00,52.8,50.6,29.85,North,7,0.0,0.0,92,0.00,,,-99.99,1.0,HOBO +U30 +Weather +,2013-01-25 06:45:00,
2013-01-24 22:50:00,52.9,50.8,29.86,North,7,0.0,0.7,92,0.00,,,-99.99,1.0,HOBO +U30 +Weather +,2013-01-25 06:50:00,
2013-01-24 23:10:00,53.1,50.9,29.86,North,7,0.0,0.0,92,0.00,,,-99.99,1.0,HOBO +U30 +Weather +,2013-01-25 07:10:00,
2013-01-24 23:15:00,53.2,50.9,29.86,North,7,0.0,0.7,92,0.00,,,-99.99,1.0,HOBO +U30 +Weather +,2013-01-25 07:15:00,
2013-01-24 23:20:00,53.3,50.9,29.86,North,7,0.0,0.0,91,0.00,,,-99.99,1.0,HOBO +U30 +Weather +,2013-01-25 07:20:00,
2013-01-24 23:25:00,53.4,51.0,29.86,North,3,0.0,1.1,91,0.00,,,-99.99,1.0,HOBO +U30 +Weather +,2013-01-25 07:25:00,
2013-01-24 23:30:00,53.4,51.0,29.86,North,355,0.0,0.0,91,0.00,,,-99.99,1.0,HOBO +U30 +Weather +,2013-01-25 07:30:00,
2013-01-24 23:35:00,53.3,50.9,29.86,North,355,0.0,0.7,91,0.00,,,-99.99,1.0,HOBO +U30 +Weather +,2013-01-25 07:35:00,
2013-01-24 23:40:00,53.3,50.8,29.86,North,355,0.0,0.0,91,0.00,,,-99.99,1.0,HOBO +U30 +Weather +,2013-01-25 07:40:00,
2013-01-24 23:45:00,53.5,51.0,29.86,North,355,0.0,1.8,91,0.00,,,-99.99,1.0,HOBO +U30 +Weather +,2013-01-25 07:45:00,
2013-01-24 23:50:00,53.4,50.9,29.86,North,355,0.0,1.1,91,0.00,,,-99.99,1.0,HOBO +U30 +Weather +,2013-01-25 07:50:00,
2013-01-24 23:55:00,53.4,50.8,29.86,North,355,0.0,0.0,90,0.00,,,-99.99,1.0,HOBO +U30 +Weather +,2013-01-25 07:55:00,